ΕΜΥ, Εθνική Μετεωρολογική Υπηρεσία - Δελτία Καιρού, Προγνώσεις

ΑΕΡΟΝΑΥΤΙΛΙΑ

GREEK AIRPORTS CODES

TAF LGSM 202000Z 2021/2106 36015KT 9999 FEW020 TEMPO 2021/2023 36015G25KT=

EUROPEAN AIRPORTS CODES

LKPR 202100Z 31011KT 9999 -RA OVC046 16/13 Q1022 NOSIG=